sensor_id;sensor_type;location;lat;lon;timestamp;temperature;humidity
14946;DHT22;7567;50.916;6.900;2022-08-01T00:02:28;22.00;1.00
14946;DHT22;7567;50.916;6.900;2022-08-01T00:04:55;22.10;1.00
14946;DHT22;7567;50.916;6.900;2022-08-01T00:07:24;22.10;1.00
14946;DHT22;7567;50.916;6.900;2022-08-01T00:09:53;22.10;1.00
14946;DHT22;7567;50.916;6.900;2022-08-01T00:12:23;22.00;1.00
14946;DHT22;7567;50.916;6.900;2022-08-01T00:14:52;22.00;1.00
14946;DHT22;7567;50.916;6.900;2022-08-01T00:17:21;21.90;1.00
14946;DHT22;7567;50.916;6.900;2022-08-01T00:19:49;21.90;1.00
14946;DHT22;7567;50.916;6.900;2022-08-01T00:22:18;21.90;1.00
14946;DHT22;7567;50.916;6.900;2022-08-01T00:24:46;21.90;1.00
14946;DHT22;7567;50.916;6.900;2022-08-01T00:27:15;21.90;1.00
14946;DHT22;7567;50.916;6.900;2022-08-01T00:29:49;22.00;1.00
14946;DHT22;7567;50.916;6.900;2022-08-01T00:32:29;21.90;1.00
14946;DHT22;7567;50.916;6.900;2022-08-01T00:35:05;22.00;1.00
14946;DHT22;7567;50.916;6.900;2022-08-01T00:37:40;21.90;1.00
14946;DHT22;7567;50.916;6.900;2022-08-01T00:40:11;21.90;1.00
14946;DHT22;7567;50.916;6.900;2022-08-01T00:42:44;21.90;1.00
14946;DHT22;7567;50.916;6.900;2022-08-01T00:45:18;21.90;1.00
14946;DHT22;7567;50.916;6.900;2022-08-01T00:47:52;21.80;1.00
14946;DHT22;7567;50.916;6.900;2022-08-01T00:50:32;21.80;1.00
14946;DHT22;7567;50.916;6.900;2022-08-01T00:53:04;21.80;1.00
14946;DHT22;7567;50.916;6.900;2022-08-01T00:55:38;21.70;1.00
14946;DHT22;7567;50.916;6.900;2022-08-01T00:58:10;21.70;1.00
14946;DHT22;7567;50.916;6.900;2022-08-01T01:00:46;21.70;1.00
14946;DHT22;7567;50.916;6.900;2022-08-01T01:03:21;21.60;1.00
14946;DHT22;7567;50.916;6.900;2022-08-01T01:11:49;21.40;1.00
14946;DHT22;7567;50.916;6.900;2022-08-01T01:30:19;21.20;1.00
14946;DHT22;7567;50.916;6.900;2022-08-01T01:32:48;21.20;1.00
14946;DHT22;7567;50.916;6.900;2022-08-01T01:35:20;21.20;1.00
14946;DHT22;7567;50.916;6.900;2022-08-01T01:37:48;21.20;1.00
14946;DHT22;7567;50.916;6.900;2022-08-01T01:40:16;21.20;1.50
14946;DHT22;7567;50.916;6.900;2022-08-01T01:42:43;21.10;1.00
14946;DHT22;7567;50.916;6.900;2022-08-01T01:45:10;21.20;1.00
14946;DHT22;7567;50.916;6.900;2022-08-01T01:47:38;21.20;1.00
14946;DHT22;7567;50.916;6.900;2022-08-01T01:50:05;21.20;1.00
14946;DHT22;7567;50.916;6.900;2022-08-01T01:52:34;21.20;1.00
14946;DHT22;7567;50.916;6.900;2022-08-01T01:55:01;21.10;11.70
14946;DHT22;7567;50.916;6.900;2022-08-01T01:57:32;21.20;1.00
14946;DHT22;7567;50.916;6.900;2022-08-01T02:00:01;21.10;14.30
14946;DHT22;7567;50.916;6.900;2022-08-01T02:02:28;21.10;9.10
14946;DHT22;7567;50.916;6.900;2022-08-01T02:05:06;21.10;13.80
14946;DHT22;7567;50.916;6.900;2022-08-01T02:07:34;21.10;16.90
14946;DHT22;7567;50.916;6.900;2022-08-01T02:10:02;21.00;29.40
14946;DHT22;7567;50.916;6.900;2022-08-01T02:12:31;21.00;51.30
14946;DHT22;7567;50.916;6.900;2022-08-01T02:14:58;20.90;52.30
14946;DHT22;7567;50.916;6.900;2022-08-01T02:17:27;21.00;37.90
14946;DHT22;7567;50.916;6.900;2022-08-01T02:19:53;21.00;56.10
14946;DHT22;7567;50.916;6.900;2022-08-01T02:22:29;21.00;49.00
14946;DHT22;7567;50.916;6.900;2022-08-01T02:28:07;21.00;45.80
14946;DHT22;7567;50.916;6.900;2022-08-01T02:30:39;21.00;53.80
14946;DHT22;7567;50.916;6.900;2022-08-01T02:33:12;21.00;39.80
14946;DHT22;7567;50.916;6.900;2022-08-01T02:35:41;20.90;56.90
14946;DHT22;7567;50.916;6.900;2022-08-01T02:38:10;20.90;79.80
14946;DHT22;7567;50.916;6.900;2022-08-01T02:40:40;20.90;67.60
14946;DHT22;7567;50.916;6.900;2022-08-01T02:43:09;20.90;82.10
14946;DHT22;7567;50.916;6.900;2022-08-01T02:45:42;20.90;60.90
14946;DHT22;7567;50.916;6.900;2022-08-01T02:48:13;20.90;60.70
14946;DHT22;7567;50.916;6.900;2022-08-01T02:50:43;20.90;69.80
14946;DHT22;7567;50.916;6.900;2022-08-01T02:53:11;20.90;46.30
14946;DHT22;7567;50.916;6.900;2022-08-01T02:55:42;20.90;79.40
14946;DHT22;7567;50.916;6.900;2022-08-01T02:58:13;20.90;93.10
14946;DHT22;7567;50.916;6.900;2022-08-01T03:00:42;20.80;65.00
14946;DHT22;7567;50.916;6.900;2022-08-01T03:03:10;20.90;97.40
14946;DHT22;7567;50.916;6.900;2022-08-01T03:05:37;20.80;78.60
14946;DHT22;7567;50.916;6.900;2022-08-01T03:08:07;20.80;94.20
14946;DHT22;7567;50.916;6.900;2022-08-01T03:10:36;20.80;99.90
14946;DHT22;7567;50.916;6.900;2022-08-01T03:13:05;20.70;80.50
14946;DHT22;7567;50.916;6.900;2022-08-01T03:15:34;20.80;94.90
14946;DHT22;7567;50.916;6.900;2022-08-01T03:18:02;20.80;99.90
14946;DHT22;7567;50.916;6.900;2022-08-01T03:20:30;20.80;91.70
14946;DHT22;7567;50.916;6.900;2022-08-01T03:23:00;20.80;99.90
14946;DHT22;7567;50.916;6.900;2022-08-01T03:25:27;20.90;90.10
14946;DHT22;7567;50.916;6.900;2022-08-01T03:27:58;20.90;83.20
14946;DHT22;7567;50.916;6.900;2022-08-01T03:30:25;20.80;91.40
14946;DHT22;7567;50.916;6.900;2022-08-01T03:32:52;20.80;99.90
14946;DHT22;7567;50.916;6.900;2022-08-01T03:35:19;20.70;99.90
14946;DHT22;7567;50.916;6.900;2022-08-01T03:37:48;20.70;99.90
14946;DHT22;7567;50.916;6.900;2022-08-01T03:40:47;20.70;99.40
14946;DHT22;7567;50.916;6.900;2022-08-01T03:43:19;20.80;99.90
14946;DHT22;7567;50.916;6.900;2022-08-01T03:45:50;20.70;99.60
14946;DHT22;7567;50.916;6.900;2022-08-01T03:48:18;20.80;99.90
14946;DHT22;7567;50.916;6.900;2022-08-01T03:50:51;20.70;99.90
14946;DHT22;7567;50.916;6.900;2022-08-01T03:53:26;20.60;99.90
14946;DHT22;7567;50.916;6.900;2022-08-01T03:55:54;20.60;99.90
14946;DHT22;7567;50.916;6.900;2022-08-01T03:58:21;20.60;99.90
14946;DHT22;7567;50.916;6.900;2022-08-01T04:00:48;20.60;99.90
14946;DHT22;7567;50.916;6.900;2022-08-01T04:03:15;20.60;99.90
14946;DHT22;7567;50.916;6.900;2022-08-01T04:05:42;20.60;99.90
14946;DHT22;7567;50.916;6.900;2022-08-01T04:08:08;20.60;99.90
14946;DHT22;7567;50.916;6.900;2022-08-01T04:10:34;20.60;99.90
14946;DHT22;7567;50.916;6.900;2022-08-01T04:13:00;20.70;99.90
14946;DHT22;7567;50.916;6.900;2022-08-01T04:15:27;20.70;99.90
14946;DHT22;7567;50.916;6.900;2022-08-01T04:17:53;20.70;99.60
14946;DHT22;7567;50.916;6.900;2022-08-01T04:20:20;20.70;99.90
14946;DHT22;7567;50.916;6.900;2022-08-01T04:22:46;20.70;99.90
14946;DHT22;7567;50.916;6.900;2022-08-01T04:25:22;20.70;99.90
14946;DHT22;7567;50.916;6.900;2022-08-01T04:27:52;20.70;99.90
14946;DHT22;7567;50.916;6.900;2022-08-01T04:30:27;20.70;99.90
14946;DHT22;7567;50.916;6.900;2022-08-01T04:32:56;20.70;99.90
14946;DHT22;7567;50.916;6.900;2022-08-01T04:35:26;20.70;99.90
14946;DHT22;7567;50.916;6.900;2022-08-01T04:37:53;20.70;99.90
14946;DHT22;7567;50.916;6.900;2022-08-01T04:40:20;20.70;99.90
14946;DHT22;7567;50.916;6.900;2022-08-01T04:42:49;20.70;99.90
14946;DHT22;7567;50.916;6.900;2022-08-01T04:45:16;20.60;99.90
14946;DHT22;7567;50.916;6.900;2022-08-01T04:47:43;20.70;99.90
14946;DHT22;7567;50.916;6.900;2022-08-01T04:50:10;20.70;99.90
14946;DHT22;7567;50.916;6.900;2022-08-01T04:52:37;20.70;99.90
14946;DHT22;7567;50.916;6.900;2022-08-01T04:55:04;20.70;99.90
14946;DHT22;7567;50.916;6.900;2022-08-01T04:57:47;20.70;99.90
14946;DHT22;7567;50.916;6.900;2022-08-01T05:00:13;20.70;99.90
14946;DHT22;7567;50.916;6.900;2022-08-01T05:02:39;20.70;99.90
14946;DHT22;7567;50.916;6.900;2022-08-01T05:05:06;20.80;99.90
14946;DHT22;7567;50.916;6.900;2022-08-01T05:07:32;20.80;99.90
14946;DHT22;7567;50.916;6.900;2022-08-01T05:09:59;20.80;99.90
14946;DHT22;7567;50.916;6.900;2022-08-01T05:12:26;20.90;99.90
14946;DHT22;7567;50.916;6.900;2022-08-01T05:14:52;20.80;99.90
14946;DHT22;7567;50.916;6.900;2022-08-01T05:17:18;20.80;99.90
14946;DHT22;7567;50.916;6.900;2022-08-01T05:19:44;20.80;99.90
14946;DHT22;7567;50.916;6.900;2022-08-01T05:22:10;20.80;99.90
14946;DHT22;7567;50.916;6.900;2022-08-01T05:24:38;20.80;99.90
14946;DHT22;7567;50.916;6.900;2022-08-01T05:27:05;20.80;99.90
14946;DHT22;7567;50.916;6.900;2022-08-01T05:29:32;20.80;99.90
14946;DHT22;7567;50.916;6.900;2022-08-01T05:31:58;20.80;99.90
14946;DHT22;7567;50.916;6.900;2022-08-01T05:34:25;20.80;99.90
14946;DHT22;7567;50.916;6.900;2022-08-01T05:36:51;20.80;99.90
14946;DHT22;7567;50.916;6.900;2022-08-01T05:39:17;20.80;99.90
14946;DHT22;7567;50.916;6.900;2022-08-01T05:41:43;20.90;99.90
14946;DHT22;7567;50.916;6.900;2022-08-01T05:44:09;20.90;99.90
14946;DHT22;7567;50.916;6.900;2022-08-01T05:46:36;20.90;99.90
14946;DHT22;7567;50.916;6.900;2022-08-01T05:49:04;20.90;99.90
14946;DHT22;7567;50.916;6.900;2022-08-01T05:51:30;20.90;99.90
14946;DHT22;7567;50.916;6.900;2022-08-01T05:53:57;20.90;99.90
14946;DHT22;7567;50.916;6.900;2022-08-01T05:56:23;20.80;99.90
14946;DHT22;7567;50.916;6.900;2022-08-01T05:58:50;20.80;99.90
14946;DHT22;7567;50.916;6.900;2022-08-01T06:01:17;20.80;99.90
14946;DHT22;7567;50.916;6.900;2022-08-01T06:03:43;20.80;99.90
14946;DHT22;7567;50.916;6.900;2022-08-01T06:06:10;20.80;99.90
14946;DHT22;7567;50.916;6.900;2022-08-01T06:08:36;20.80;99.90
14946;DHT22;7567;50.916;6.900;2022-08-01T06:11:02;20.90;99.90
14946;DHT22;7567;50.916;6.900;2022-08-01T06:13:28;20.90;99.90
14946;DHT22;7567;50.916;6.900;2022-08-01T06:15:54;21.00;99.90
14946;DHT22;7567;50.916;6.900;2022-08-01T06:18:20;21.10;99.90
14946;DHT22;7567;50.916;6.900;2022-08-01T06:20:46;21.10;99.90
14946;DHT22;7567;50.916;6.900;2022-08-01T06:23:13;21.20;99.90
14946;DHT22;7567;50.916;6.900;2022-08-01T06:25:42;21.30;99.90
14946;DHT22;7567;50.916;6.900;2022-08-01T06:28:08;21.50;99.90
14946;DHT22;7567;50.916;6.900;2022-08-01T06:30:34;21.50;99.90
14946;DHT22;7567;50.916;6.900;2022-08-01T06:33:00;21.60;96.10
14946;DHT22;7567;50.916;6.900;2022-08-01T06:35:27;21.60;99.90
14946;DHT22;7567;50.916;6.900;2022-08-01T06:37:55;21.70;81.70
14946;DHT22;7567;50.916;6.900;2022-08-01T06:40:22;21.70;94.20
14946;DHT22;7567;50.916;6.900;2022-08-01T06:42:48;21.80;99.90
14946;DHT22;7567;50.916;6.900;2022-08-01T06:45:14;21.90;82.30
14946;DHT22;7567;50.916;6.900;2022-08-01T06:47:42;22.00;44.10
14946;DHT22;7567;50.916;6.900;2022-08-01T06:50:10;21.90;25.60
14946;DHT22;7567;50.916;6.900;2022-08-01T06:52:36;22.00;43.00
14946;DHT22;7567;50.916;6.900;2022-08-01T06:55:03;22.00;32.70
14946;DHT22;7567;50.916;6.900;2022-08-01T06:57:29;22.00;1.00
14946;DHT22;7567;50.916;6.900;2022-08-01T06:59:55;22.10;11.80
14946;DHT22;7567;50.916;6.900;2022-08-01T07:02:22;22.20;4.30
14946;DHT22;7567;50.916;6.900;2022-08-01T07:04:48;22.30;1.00
14946;DHT22;7567;50.916;6.900;2022-08-01T07:07:14;22.40;1.00
14946;DHT22;7567;50.916;6.900;2022-08-01T07:09:40;22.50;1.00
14946;DHT22;7567;50.916;6.900;2022-08-01T07:12:08;22.50;1.00
14946;DHT22;7567;50.916;6.900;2022-08-01T07:14:34;22.50;1.00
14946;DHT22;7567;50.916;6.900;2022-08-01T07:17:00;22.60;1.00
14946;DHT22;7567;50.916;6.900;2022-08-01T07:19:26;22.60;1.00
14946;DHT22;7567;50.916;6.900;2022-08-01T07:21:53;22.60;1.00
14946;DHT22;7567;50.916;6.900;2022-08-01T07:24:19;22.60;1.00
14946;DHT22;7567;50.916;6.900;2022-08-01T07:26:47;22.60;1.00
14946;DHT22;7567;50.916;6.900;2022-08-01T07:29:13;22.50;1.00
14946;DHT22;7567;50.916;6.900;2022-08-01T07:31:39;22.40;1.00
14946;DHT22;7567;50.916;6.900;2022-08-01T07:34:05;22.40;1.00
14946;DHT22;7567;50.916;6.900;2022-08-01T07:36:31;22.50;1.00
14946;DHT22;7567;50.916;6.900;2022-08-01T07:38:57;22.60;1.00
14946;DHT22;7567;50.916;6.900;2022-08-01T07:41:23;22.60;1.00
14946;DHT22;7567;50.916;6.900;2022-08-01T07:43:49;22.70;1.00
14946;DHT22;7567;50.916;6.900;2022-08-01T07:46:16;22.70;1.00
14946;DHT22;7567;50.916;6.900;2022-08-01T07:48:42;22.70;1.00
14946;DHT22;7567;50.916;6.900;2022-08-01T07:51:09;22.70;1.00
14946;DHT22;7567;50.916;6.900;2022-08-01T07:53:36;22.70;1.00
14946;DHT22;7567;50.916;6.900;2022-08-01T07:56:03;22.80;1.00
14946;DHT22;7567;50.916;6.900;2022-08-01T07:58:30;22.80;1.00
14946;DHT22;7567;50.916;6.900;2022-08-01T08:00:56;23.00;1.00
14946;DHT22;7567;50.916;6.900;2022-08-01T08:03:22;23.20;1.00
14946;DHT22;7567;50.916;6.900;2022-08-01T08:06:13;23.40;1.00
14946;DHT22;7567;50.916;6.900;2022-08-01T08:08:39;23.40;1.00
14946;DHT22;7567;50.916;6.900;2022-08-01T08:11:05;23.50;1.00
14946;DHT22;7567;50.916;6.900;2022-08-01T08:13:31;23.50;1.00
14946;DHT22;7567;50.916;6.900;2022-08-01T08:15:57;23.60;1.00
14946;DHT22;7567;50.916;6.900;2022-08-01T08:18:24;23.50;1.00
14946;DHT22;7567;50.916;6.900;2022-08-01T08:20:50;23.40;1.00
14946;DHT22;7567;50.916;6.900;2022-08-01T08:23:16;23.80;1.00
14946;DHT22;7567;50.916;6.900;2022-08-01T08:26:00;24.30;1.00
14946;DHT22;7567;50.916;6.900;2022-08-01T08:28:27;24.50;99.90
14946;DHT22;7567;50.916;6.900;2022-08-01T08:30:53;24.60;99.90
14946;DHT22;7567;50.916;6.900;2022-08-01T08:33:20;24.70;99.90
14946;DHT22;7567;50.916;6.900;2022-08-01T08:35:46;24.50;99.90
14946;DHT22;7567;50.916;6.900;2022-08-01T08:38:12;24.50;99.90
14946;DHT22;7567;50.916;6.900;2022-08-01T08:40:39;24.40;99.90
14946;DHT22;7567;50.916;6.900;2022-08-01T08:43:05;24.10;99.90
14946;DHT22;7567;50.916;6.900;2022-08-01T08:45:32;24.10;99.90
14946;DHT22;7567;50.916;6.900;2022-08-01T08:47:58;24.20;99.90
14946;DHT22;7567;50.916;6.900;2022-08-01T08:50:28;24.00;1.00
14946;DHT22;7567;50.916;6.900;2022-08-01T08:52:55;24.00;99.90
14946;DHT22;7567;50.916;6.900;2022-08-01T08:55:22;23.80;99.90
14946;DHT22;7567;50.916;6.900;2022-08-01T08:57:49;23.70;1.00
14946;DHT22;7567;50.916;6.900;2022-08-01T09:00:15;23.60;1.00
14946;DHT22;7567;50.916;6.900;2022-08-01T09:02:43;23.80;1.00
14946;DHT22;7567;50.916;6.900;2022-08-01T09:05:10;24.00;1.00
14946;DHT22;7567;50.916;6.900;2022-08-01T09:07:36;24.10;99.90
14946;DHT22;7567;50.916;6.900;2022-08-01T09:10:03;24.10;99.90
14946;DHT22;7567;50.916;6.900;2022-08-01T09:12:29;24.30;99.90
14946;DHT22;7567;50.916;6.900;2022-08-01T09:14:55;24.40;99.90
14946;DHT22;7567;50.916;6.900;2022-08-01T09:17:22;24.40;99.90
14946;DHT22;7567;50.916;6.900;2022-08-01T09:19:53;24.40;1.00
14946;DHT22;7567;50.916;6.900;2022-08-01T09:22:33;24.40;1.00
14946;DHT22;7567;50.916;6.900;2022-08-01T09:25:07;24.40;1.00
14946;DHT22;7567;50.916;6.900;2022-08-01T09:27:35;24.40;1.00
14946;DHT22;7567;50.916;6.900;2022-08-01T09:30:12;24.40;1.00
14946;DHT22;7567;50.916;6.900;2022-08-01T09:35:34;24.40;14.30
14946;DHT22;7567;50.916;6.900;2022-08-01T09:38:21;24.30;1.00
14946;DHT22;7567;50.916;6.900;2022-08-01T09:40:58;24.00;99.90
14946;DHT22;7567;50.916;6.900;2022-08-01T09:43:29;24.10;99.90
14946;DHT22;7567;50.916;6.900;2022-08-01T09:45:56;24.50;99.90
14946;DHT22;7567;50.916;6.900;2022-08-01T09:48:22;25.00;1.00
14946;DHT22;7567;50.916;6.900;2022-08-01T09:50:50;25.20;1.00
14946;DHT22;7567;50.916;6.900;2022-08-01T09:53:17;25.30;99.90
14946;DHT22;7567;50.916;6.900;2022-08-01T09:55:43;25.50;1.00
14946;DHT22;7567;50.916;6.900;2022-08-01T09:58:10;25.60;1.00
14946;DHT22;7567;50.916;6.900;2022-08-01T10:00:38;25.70;99.90
14946;DHT22;7567;50.916;6.900;2022-08-01T10:03:21;25.90;1.00
14946;DHT22;7567;50.916;6.900;2022-08-01T10:05:47;25.90;99.90
14946;DHT22;7567;50.916;6.900;2022-08-01T10:08:14;25.90;99.90
14946;DHT22;7567;50.916;6.900;2022-08-01T10:10:40;25.80;1.00
14946;DHT22;7567;50.916;6.900;2022-08-01T10:13:08;25.70;99.90
14946;DHT22;7567;50.916;6.900;2022-08-01T10:15:35;25.80;1.00
14946;DHT22;7567;50.916;6.900;2022-08-01T10:18:04;25.90;99.90
14946;DHT22;7567;50.916;6.900;2022-08-01T10:20:32;25.80;1.00
14946;DHT22;7567;50.916;6.900;2022-08-01T10:23:02;25.70;99.90
14946;DHT22;7567;50.916;6.900;2022-08-01T10:25:38;25.60;99.90
14946;DHT22;7567;50.916;6.900;2022-08-01T10:28:13;25.60;1.00
14946;DHT22;7567;50.916;6.900;2022-08-01T10:30:42;25.60;99.90
14946;DHT22;7567;50.916;6.900;2022-08-01T10:33:12;25.40;93.00
14946;DHT22;7567;50.916;6.900;2022-08-01T10:35:38;25.50;1.00
14946;DHT22;7567;50.916;6.900;2022-08-01T10:38:09;25.70;1.00
14946;DHT22;7567;50.916;6.900;2022-08-01T10:40:35;25.90;1.00
14946;DHT22;7567;50.916;6.900;2022-08-01T10:43:02;26.00;1.00
14946;DHT22;7567;50.916;6.900;2022-08-01T10:45:30;25.90;1.00
14946;DHT22;7567;50.916;6.900;2022-08-01T10:48:08;25.80;99.90
14946;DHT22;7567;50.916;6.900;2022-08-01T10:50:42;25.50;99.90
14946;DHT22;7567;50.916;6.900;2022-08-01T10:53:19;25.40;1.00
14946;DHT22;7567;50.916;6.900;2022-08-01T10:58:28;25.40;1.00
14946;DHT22;7567;50.916;6.900;2022-08-01T11:01:27;25.40;99.90
14946;DHT22;7567;50.916;6.900;2022-08-01T11:06:25;25.80;1.00
14946;DHT22;7567;50.916;6.900;2022-08-01T11:08:53;26.20;1.00
14946;DHT22;7567;50.916;6.900;2022-08-01T11:11:21;26.60;1.00
14946;DHT22;7567;50.916;6.900;2022-08-01T11:14:05;26.90;1.00
14946;DHT22;7567;50.916;6.900;2022-08-01T11:16:39;26.90;1.00
14946;DHT22;7567;50.916;6.900;2022-08-01T11:19:07;26.80;1.00
14946;DHT22;7567;50.916;6.900;2022-08-01T11:27:22;27.30;99.90
14946;DHT22;7567;50.916;6.900;2022-08-01T11:32:52;27.20;1.00
14946;DHT22;7567;50.916;6.900;2022-08-01T11:35:19;27.60;99.90
14946;DHT22;7567;50.916;6.900;2022-08-01T11:37:47;28.00;1.00
14946;DHT22;7567;50.916;6.900;2022-08-01T11:42:50;27.90;1.00
14946;DHT22;7567;50.916;6.900;2022-08-01T11:45:17;27.80;1.00
14946;DHT22;7567;50.916;6.900;2022-08-01T11:50:32;27.10;99.90
14946;DHT22;7567;50.916;6.900;2022-08-01T11:53:00;26.90;1.00
14946;DHT22;7567;50.916;6.900;2022-08-01T11:55:28;26.70;1.00
14946;DHT22;7567;50.916;6.900;2022-08-01T11:58:04;26.80;1.00
14946;DHT22;7567;50.916;6.900;2022-08-01T12:00:50;27.00;1.00
14946;DHT22;7567;50.916;6.900;2022-08-01T12:03:22;27.40;99.90
14946;DHT22;7567;50.916;6.900;2022-08-01T12:05:48;27.80;99.90
14946;DHT22;7567;50.916;6.900;2022-08-01T12:08:30;27.90;1.00
14946;DHT22;7567;50.916;6.900;2022-08-01T12:10:59;27.80;1.00
14946;DHT22;7567;50.916;6.900;2022-08-01T12:13:26;27.90;1.00
14946;DHT22;7567;50.916;6.900;2022-08-01T12:15:52;27.90;1.00
14946;DHT22;7567;50.916;6.900;2022-08-01T12:18:19;27.90;99.90
14946;DHT22;7567;50.916;6.900;2022-08-01T12:20:46;27.90;99.90
14946;DHT22;7567;50.916;6.900;2022-08-01T12:23:13;27.70;1.00
14946;DHT22;7567;50.916;6.900;2022-08-01T12:25:40;27.40;1.00
14946;DHT22;7567;50.916;6.900;2022-08-01T12:28:08;27.20;1.00
14946;DHT22;7567;50.916;6.900;2022-08-01T12:30:35;27.20;1.00
14946;DHT22;7567;50.916;6.900;2022-08-01T12:33:04;27.10;1.00
14946;DHT22;7567;50.916;6.900;2022-08-01T12:35:31;27.10;1.00
14946;DHT22;7567;50.916;6.900;2022-08-01T12:38:03;26.90;1.00
14946;DHT22;7567;50.916;6.900;2022-08-01T12:40:36;26.80;1.00
14946;DHT22;7567;50.916;6.900;2022-08-01T12:43:08;26.80;80.10
14946;DHT22;7567;50.916;6.900;2022-08-01T12:45:40;26.80;91.90
14946;DHT22;7567;50.916;6.900;2022-08-01T12:48:10;26.80;1.00
14946;DHT22;7567;50.916;6.900;2022-08-01T12:50:39;26.80;1.00
14946;DHT22;7567;50.916;6.900;2022-08-01T12:53:08;26.70;1.00
14946;DHT22;7567;50.916;6.900;2022-08-01T12:55:51;26.60;1.00
14946;DHT22;7567;50.916;6.900;2022-08-01T12:58:18;26.80;1.00
14946;DHT22;7567;50.916;6.900;2022-08-01T13:00:47;26.90;1.00
14946;DHT22;7567;50.916;6.900;2022-08-01T13:03:18;27.10;1.00
14946;DHT22;7567;50.916;6.900;2022-08-01T13:06:31;27.30;1.00
14946;DHT22;7567;50.916;6.900;2022-08-01T13:08:34;27.30;1.00
14946;DHT22;7567;50.916;6.900;2022-08-01T13:11:04;27.20;1.00
14946;DHT22;7567;50.916;6.900;2022-08-01T13:13:50;27.20;1.00
14946;DHT22;7567;50.916;6.900;2022-08-01T13:16:18;27.10;1.00
14946;DHT22;7567;50.916;6.900;2022-08-01T13:18:52;27.00;1.00
14946;DHT22;7567;50.916;6.900;2022-08-01T13:24:07;27.00;1.00
14946;DHT22;7567;50.916;6.900;2022-08-01T13:26:46;27.00;1.00
14946;DHT22;7567;50.916;6.900;2022-08-01T13:29:14;27.00;1.00
14946;DHT22;7567;50.916;6.900;2022-08-01T13:31:41;27.10;1.00
14946;DHT22;7567;50.916;6.900;2022-08-01T13:34:07;27.20;1.00
14946;DHT22;7567;50.916;6.900;2022-08-01T13:36:34;27.10;1.00
14946;DHT22;7567;50.916;6.900;2022-08-01T13:39:02;27.20;1.00
14946;DHT22;7567;50.916;6.900;2022-08-01T13:41:47;27.30;1.00
14946;DHT22;7567;50.916;6.900;2022-08-01T13:44:13;27.20;1.00
14946;DHT22;7567;50.916;6.900;2022-08-01T13:46:40;27.10;1.00
14946;DHT22;7567;50.916;6.900;2022-08-01T13:49:08;27.10;1.00
14946;DHT22;7567;50.916;6.900;2022-08-01T13:51:35;27.00;1.00
14946;DHT22;7567;50.916;6.900;2022-08-01T13:54:02;26.80;1.00
14946;DHT22;7567;50.916;6.900;2022-08-01T13:56:28;26.60;99.90
14946;DHT22;7567;50.916;6.900;2022-08-01T13:58:55;26.40;99.90
14946;DHT22;7567;50.916;6.900;2022-08-01T14:01:21;26.30;1.00
14946;DHT22;7567;50.916;6.900;2022-08-01T14:03:47;26.30;1.00
14946;DHT22;7567;50.916;6.900;2022-08-01T14:06:14;26.30;1.00
14946;DHT22;7567;50.916;6.900;2022-08-01T14:08:42;26.40;1.00
14946;DHT22;7567;50.916;6.900;2022-08-01T14:11:09;26.40;1.00
14946;DHT22;7567;50.916;6.900;2022-08-01T14:13:35;26.50;1.00
14946;DHT22;7567;50.916;6.900;2022-08-01T14:16:04;26.50;1.00
14946;DHT22;7567;50.916;6.900;2022-08-01T14:18:30;26.60;99.90
14946;DHT22;7567;50.916;6.900;2022-08-01T14:20:57;26.70;99.90
14946;DHT22;7567;50.916;6.900;2022-08-01T14:23:22;26.90;99.90
14946;DHT22;7567;50.916;6.900;2022-08-01T14:25:49;27.10;99.90
14946;DHT22;7567;50.916;6.900;2022-08-01T14:28:15;27.10;99.90
14946;DHT22;7567;50.916;6.900;2022-08-01T14:30:41;27.10;99.90
14946;DHT22;7567;50.916;6.900;2022-08-01T14:33:09;27.10;99.90
14946;DHT22;7567;50.916;6.900;2022-08-01T14:35:35;27.10;99.90
14946;DHT22;7567;50.916;6.900;2022-08-01T14:38:01;27.10;99.90
14946;DHT22;7567;50.916;6.900;2022-08-01T14:40:27;27.10;99.90
14946;DHT22;7567;50.916;6.900;2022-08-01T14:42:53;27.10;99.90
14946;DHT22;7567;50.916;6.900;2022-08-01T14:45:19;27.20;99.90
14946;DHT22;7567;50.916;6.900;2022-08-01T14:47:45;27.00;99.90
14946;DHT22;7567;50.916;6.900;2022-08-01T14:50:13;27.10;99.90
14946;DHT22;7567;50.916;6.900;2022-08-01T14:52:40;27.20;99.90
14946;DHT22;7567;50.916;6.900;2022-08-01T14:55:07;27.20;99.90
14946;DHT22;7567;50.916;6.900;2022-08-01T14:57:35;27.10;99.90
14946;DHT22;7567;50.916;6.900;2022-08-01T15:00:02;27.20;99.90
14946;DHT22;7567;50.916;6.900;2022-08-01T15:02:28;27.10;99.90
14946;DHT22;7567;50.916;6.900;2022-08-01T15:04:54;26.90;99.90
14946;DHT22;7567;50.916;6.900;2022-08-01T15:07:20;26.90;99.90
14946;DHT22;7567;50.916;6.900;2022-08-01T15:09:46;27.00;99.90
14946;DHT22;7567;50.916;6.900;2022-08-01T15:12:12;27.10;99.90
14946;DHT22;7567;50.916;6.900;2022-08-01T15:14:38;27.20;99.90
14946;DHT22;7567;50.916;6.900;2022-08-01T15:17:19;27.20;99.90
14946;DHT22;7567;50.916;6.900;2022-08-01T15:19:46;27.40;99.90
14946;DHT22;7567;50.916;6.900;2022-08-01T15:22:13;27.70;99.90
14946;DHT22;7567;50.916;6.900;2022-08-01T15:24:39;27.80;99.90
14946;DHT22;7567;50.916;6.900;2022-08-01T15:27:05;27.60;99.90
14946;DHT22;7567;50.916;6.900;2022-08-01T15:29:32;27.50;99.90
14946;DHT22;7567;50.916;6.900;2022-08-01T15:31:59;27.40;99.90
14946;DHT22;7567;50.916;6.900;2022-08-01T15:34:25;27.40;99.90
14946;DHT22;7567;50.916;6.900;2022-08-01T15:36:51;27.40;99.90
14946;DHT22;7567;50.916;6.900;2022-08-01T15:39:17;27.40;99.90
14946;DHT22;7567;50.916;6.900;2022-08-01T15:41:43;27.20;99.90
14946;DHT22;7567;50.916;6.900;2022-08-01T15:44:09;27.10;99.90
14946;DHT22;7567;50.916;6.900;2022-08-01T15:46:38;27.00;99.90
14946;DHT22;7567;50.916;6.900;2022-08-01T15:49:05;26.90;99.90
14946;DHT22;7567;50.916;6.900;2022-08-01T15:51:32;27.00;99.90
14946;DHT22;7567;50.916;6.900;2022-08-01T15:53:58;27.00;99.90
14946;DHT22;7567;50.916;6.900;2022-08-01T15:56:31;26.80;99.90
14946;DHT22;7567;50.916;6.900;2022-08-01T15:58:57;26.60;99.90
14946;DHT22;7567;50.916;6.900;2022-08-01T16:01:23;26.50;99.90
14946;DHT22;7567;50.916;6.900;2022-08-01T16:03:52;26.50;99.90
14946;DHT22;7567;50.916;6.900;2022-08-01T16:06:18;26.30;1.00
14946;DHT22;7567;50.916;6.900;2022-08-01T16:08:44;26.30;1.00
14946;DHT22;7567;50.916;6.900;2022-08-01T16:11:10;26.20;1.00
14946;DHT22;7567;50.916;6.900;2022-08-01T16:13:36;26.30;1.00
14946;DHT22;7567;50.916;6.900;2022-08-01T16:16:02;26.40;1.00
14946;DHT22;7567;50.916;6.900;2022-08-01T16:18:30;26.40;1.00
14946;DHT22;7567;50.916;6.900;2022-08-01T16:20:56;26.40;1.00
14946;DHT22;7567;50.916;6.900;2022-08-01T16:23:26;26.50;1.00
14946;DHT22;7567;50.916;6.900;2022-08-01T16:25:52;26.60;1.00
14946;DHT22;7567;50.916;6.900;2022-08-01T16:28:19;26.60;1.00
14946;DHT22;7567;50.916;6.900;2022-08-01T16:30:45;26.70;1.00
14946;DHT22;7567;50.916;6.900;2022-08-01T16:33:11;26.80;1.00
14946;DHT22;7567;50.916;6.900;2022-08-01T16:35:38;26.80;1.00
14946;DHT22;7567;50.916;6.900;2022-08-01T16:38:04;26.90;1.00
14946;DHT22;7567;50.916;6.900;2022-08-01T16:40:32;27.00;1.00
14946;DHT22;7567;50.916;6.900;2022-08-01T16:42:59;27.10;1.00
14946;DHT22;7567;50.916;6.900;2022-08-01T16:45:25;27.20;1.00
14946;DHT22;7567;50.916;6.900;2022-08-01T16:47:50;27.10;99.90
14946;DHT22;7567;50.916;6.900;2022-08-01T16:50:17;26.90;1.00
14946;DHT22;7567;50.916;6.900;2022-08-01T16:52:43;26.70;1.00